createdAt,value
2022-10-06T00:00:04.500Z,96450.00
2022-10-06T00:00:14.671Z,96456.00
2022-10-06T00:00:24.421Z,96456.00
2022-10-06T00:00:34.445Z,96458.00
2022-10-06T00:00:44.599Z,96454.00
2022-10-06T00:00:54.624Z,96456.00
2022-10-06T00:01:04.678Z,96458.00
2022-10-06T00:01:14.692Z,96457.00
2022-10-06T00:01:24.665Z,96457.00
2022-10-06T00:01:34.719Z,96457.00
2022-10-06T00:01:44.495Z,96453.00
2022-10-06T00:01:54.672Z,96453.00
2022-10-06T00:02:04.595Z,96454.00
2022-10-06T00:02:14.634Z,96455.00
2022-10-06T00:02:24.632Z,96453.00
2022-10-06T00:02:34.878Z,96455.00
2022-10-06T00:02:44.577Z,96455.00
2022-10-06T00:02:54.644Z,96455.00
2022-10-06T00:03:04.560Z,96456.00
2022-10-06T00:03:14.681Z,96457.00
2022-10-06T00:03:24.484Z,96458.00
2022-10-06T00:03:34.732Z,96458.00
2022-10-06T00:03:44.535Z,96454.00
2022-10-06T00:03:54.507Z,96456.00
2022-10-06T00:04:04.573Z,96457.00
2022-10-06T00:04:14.496Z,96456.00
2022-10-06T00:04:24.496Z,96456.00
2022-10-06T00:04:34.463Z,96453.00
2022-10-06T00:04:44.632Z,96458.00
2022-10-06T00:04:54.633Z,96458.00
2022-10-06T00:05:04.624Z,96459.00
2022-10-06T00:05:14.737Z,96456.00
2022-10-06T00:05:24.436Z,96453.00
2022-10-06T00:05:34.487Z,96457.00
2022-10-06T00:05:44.418Z,96461.00
2022-10-06T00:05:54.653Z,96456.00
2022-10-06T00:06:04.420Z,96455.00
2022-10-06T00:06:14.456Z,96457.00
2022-10-06T00:06:24.553Z,96457.00
2022-10-06T00:06:34.705Z,96453.00
2022-10-06T00:06:44.480Z,96455.00
2022-10-06T00:06:54.545Z,96454.00
2022-10-06T00:07:04.533Z,96458.00
2022-10-06T00:07:14.715Z,96459.00
2022-10-06T00:07:24.457Z,96459.00
2022-10-06T00:07:34.525Z,96457.00
2022-10-06T00:07:44.637Z,96459.00
2022-10-06T00:07:54.530Z,96458.00
2022-10-06T00:08:04.552Z,96454.00
2022-10-06T00:08:14.442Z,96459.00
2022-10-06T00:08:24.896Z,96459.00
2022-10-06T00:08:34.454Z,96455.00
2022-10-06T00:08:44.591Z,96461.00
2022-10-06T00:08:54.459Z,96461.00
2022-10-06T00:09:04.657Z,96461.00
2022-10-06T00:09:14.732Z,96458.00
2022-10-06T00:09:24.496Z,96459.00
2022-10-06T00:09:34.418Z,96459.00
2022-10-06T00:09:44.594Z,96457.00
2022-10-06T00:09:54.571Z,96456.00
2022-10-06T00:10:04.446Z,96457.00
2022-10-06T00:10:14.417Z,96459.00
2022-10-06T00:10:24.650Z,96460.00
2022-10-06T00:10:34.566Z,96460.00
2022-10-06T00:10:44.443Z,96459.00
2022-10-06T00:10:54.589Z,96457.00
2022-10-06T00:11:04.471Z,96460.00
2022-10-06T00:11:14.419Z,96460.00
2022-10-06T00:11:24.546Z,96460.00
2022-10-06T00:11:34.617Z,96457.00
2022-10-06T00:11:44.405Z,96458.00
2022-10-06T00:11:54.639Z,96458.00
2022-10-06T00:12:04.581Z,96456.00
2022-10-06T00:12:14.793Z,96457.00
2022-10-06T00:12:24.648Z,96459.00
2022-10-06T00:12:34.489Z,96459.00
2022-10-06T00:12:44.653Z,96461.00
2022-10-06T00:12:54.707Z,96458.00
2022-10-06T00:13:04.571Z,96459.00
2022-10-06T00:13:14.636Z,96461.00
2022-10-06T00:13:24.676Z,96459.00
2022-10-06T00:13:34.489Z,96458.00
2022-10-06T00:13:44.519Z,96458.00
2022-10-06T00:13:54.545Z,96459.00
2022-10-06T00:14:04.510Z,96461.00
2022-10-06T00:14:14.528Z,96461.00
2022-10-06T00:14:24.627Z,96461.00
2022-10-06T00:14:34.562Z,96460.00
2022-10-06T00:14:44.524Z,96457.00
2022-10-06T00:14:54.526Z,96460.00
2022-10-06T00:15:04.420Z,96462.00
2022-10-06T00:15:14.667Z,96464.00
2022-10-06T00:15:24.480Z,96460.00
2022-10-06T00:15:34.774Z,96464.00
2022-10-06T00:15:44.650Z,96459.00
2022-10-06T00:15:54.657Z,96461.00
2022-10-06T00:16:04.611Z,96466.00
2022-10-06T00:16:14.588Z,96463.00
2022-10-06T00:16:24.591Z,96460.00
2022-10-06T00:16:34.673Z,96464.00
2022-10-06T00:16:44.507Z,96465.00
2022-10-06T00:16:54.552Z,96462.00
2022-10-06T00:17:04.419Z,96466.00
2022-10-06T00:17:14.692Z,96463.00
2022-10-06T00:17:24.593Z,96465.00
2022-10-06T00:17:34.658Z,96464.00
2022-10-06T00:17:44.431Z,96462.00
2022-10-06T00:17:54.703Z,96459.00
2022-10-06T00:18:04.544Z,96464.00
2022-10-06T00:18:14.672Z,96459.00
2022-10-06T00:18:24.476Z,96463.00
2022-10-06T00:18:34.697Z,96463.00
2022-10-06T00:18:44.678Z,96462.00
2022-10-06T00:18:54.532Z,96461.00
2022-10-06T00:19:04.535Z,96466.00
2022-10-06T00:19:14.606Z,96463.00
2022-10-06T00:19:24.552Z,96461.00
2022-10-06T00:19:34.468Z,96464.00
2022-10-06T00:19:44.628Z,96462.00
2022-10-06T00:19:54.652Z,96460.00
2022-10-06T00:20:04.575Z,96462.00
2022-10-06T00:20:14.708Z,96465.00
2022-10-06T00:20:24.532Z,96465.00
2022-10-06T00:20:34.522Z,96462.00
2022-10-06T00:20:44.662Z,96466.00
2022-10-06T00:20:54.423Z,96466.00
2022-10-06T00:21:04.542Z,96464.00
2022-10-06T00:21:14.657Z,96465.00
2022-10-06T00:21:24.548Z,96463.00
2022-10-06T00:21:34.636Z,96465.00
2022-10-06T00:21:44.440Z,96465.00
2022-10-06T00:21:54.658Z,96462.00
2022-10-06T00:22:04.640Z,96466.00
2022-10-06T00:22:14.626Z,96467.00
2022-10-06T00:22:24.616Z,96463.00
2022-10-06T00:22:34.646Z,96464.00
2022-10-06T00:22:44.537Z,96464.00
2022-10-06T00:22:54.595Z,96465.00
2022-10-06T00:23:04.644Z,96461.00
2022-10-06T00:23:14.562Z,96464.00
2022-10-06T00:23:24.426Z,96464.00
2022-10-06T00:23:34.485Z,96465.00
2022-10-06T00:23:44.576Z,96466.00
2022-10-06T00:23:54.409Z,96464.00
2022-10-06T00:24:04.540Z,96467.00
2022-10-06T00:24:14.633Z,96465.00
2022-10-06T00:24:24.530Z,96466.00
2022-10-06T00:24:34.449Z,96467.00
2022-10-06T00:24:44.654Z,96465.00
2022-10-06T00:24:54.822Z,96467.00
2022-10-06T00:25:04.594Z,96466.00
2022-10-06T00:25:14.584Z,96464.00
2022-10-06T00:25:24.604Z,96464.00
2022-10-06T00:25:34.648Z,96468.00
2022-10-06T00:25:44.474Z,96469.00
2022-10-06T00:25:54.617Z,96469.00
2022-10-06T00:26:04.659Z,96468.00
2022-10-06T00:26:14.563Z,96470.00
2022-10-06T00:26:24.454Z,96467.00
2022-10-06T00:26:34.493Z,96468.00
2022-10-06T00:26:44.690Z,96470.00
2022-10-06T00:26:54.501Z,96470.00
2022-10-06T00:27:04.660Z,96465.00
2022-10-06T00:27:14.412Z,96469.00
2022-10-06T00:27:24.697Z,96470.00
2022-10-06T00:27:34.703Z,96470.00
2022-10-06T00:27:44.614Z,96474.00
2022-10-06T00:27:54.613Z,96468.00
2022-10-06T00:28:04.522Z,96469.00
2022-10-06T00:28:14.772Z,96469.00
2022-10-06T00:28:24.813Z,96474.00
2022-10-06T00:28:35.029Z,96470.00
2022-10-06T00:28:44.539Z,96468.00
2022-10-06T00:28:54.493Z,96471.00
2022-10-06T00:29:04.525Z,96471.00
2022-10-06T00:29:14.462Z,96473.00
2022-10-06T00:29:24.580Z,96474.00
2022-10-06T00:29:34.458Z,96471.00
2022-10-06T00:29:44.665Z,96469.00
2022-10-06T00:29:54.658Z,96470.00
2022-10-06T00:30:04.656Z,96471.00
2022-10-06T00:30:14.444Z,96475.00
2022-10-06T00:30:24.565Z,96471.00
2022-10-06T00:30:34.648Z,96471.00
2022-10-06T00:30:44.541Z,96473.00
2022-10-06T00:30:54.469Z,96473.00
2022-10-06T00:31:04.575Z,96476.00
2022-10-06T00:31:14.600Z,96473.00
2022-10-06T00:31:24.618Z,96470.00
2022-10-06T00:31:34.654Z,96469.00
2022-10-06T00:31:44.531Z,96469.00
2022-10-06T00:31:54.597Z,96473.00
2022-10-06T00:32:04.542Z,96473.00
2022-10-06T00:32:14.465Z,96472.00
2022-10-06T00:32:24.475Z,96476.00
2022-10-06T00:32:34.623Z,96475.00
2022-10-06T00:32:44.413Z,96472.00
2022-10-06T00:32:54.469Z,96469.00
2022-10-06T00:33:04.513Z,96473.00
2022-10-06T00:33:14.748Z,96471.00
2022-10-06T00:33:24.424Z,96473.00
2022-10-06T00:33:34.682Z,96470.00
2022-10-06T00:33:44.651Z,96473.00
2022-10-06T00:33:54.623Z,96473.00
2022-10-06T00:34:04.549Z,96471.00
2022-10-06T00:34:14.558Z,96472.00
2022-10-06T00:34:24.612Z,96476.00
2022-10-06T00:34:34.693Z,96474.00
2022-10-06T00:34:44.569Z,96473.00
2022-10-06T00:34:54.628Z,96475.00
2022-10-06T00:35:04.566Z,96475.00
2022-10-06T00:35:14.505Z,96474.00
2022-10-06T00:35:24.638Z,96475.00
2022-10-06T00:35:34.657Z,96473.00
2022-10-06T00:35:44.556Z,96475.00
2022-10-06T00:35:54.442Z,96472.00
2022-10-06T00:36:04.685Z,96472.00
2022-10-06T00:36:14.651Z,96472.00
2022-10-06T00:36:24.608Z,96474.00
2022-10-06T00:36:34.580Z,96470.00
2022-10-06T00:36:44.594Z,96473.00
2022-10-06T00:36:54.576Z,96473.00
2022-10-06T00:37:04.602Z,96477.00
2022-10-06T00:37:14.420Z,96477.00
2022-10-06T00:37:24.470Z,96475.00
2022-10-06T00:37:34.646Z,96475.00
2022-10-06T00:37:44.595Z,96476.00
2022-10-06T00:37:54.487Z,96476.00
2022-10-06T00:38:04.659Z,96476.00
2022-10-06T00:38:14.627Z,96480.00
2022-10-06T00:38:24.514Z,96475.00
2022-10-06T00:38:34.480Z,96476.00
2022-10-06T00:38:44.531Z,96476.00
2022-10-06T00:38:54.541Z,96477.00
2022-10-06T00:39:04.457Z,96474.00
2022-10-06T00:39:14.713Z,96475.00
2022-10-06T00:39:24.593Z,96477.00
2022-10-06T00:39:34.432Z,96475.00
2022-10-06T00:39:44.423Z,96476.00
2022-10-06T00:39:54.535Z,96474.00
2022-10-06T00:40:04.576Z,96478.00
2022-10-06T00:40:14.555Z,96476.00
2022-10-06T00:40:24.434Z,96477.00
2022-10-06T00:40:34.577Z,96476.00
2022-10-06T00:40:44.708Z,96476.00
2022-10-06T00:40:54.572Z,96479.00
2022-10-06T00:41:04.676Z,96477.00
2022-10-06T00:41:14.564Z,96473.00
2022-10-06T00:41:24.414Z,96477.00
2022-10-06T00:41:34.449Z,96475.00
2022-10-06T00:41:44.580Z,96475.00
2022-10-06T00:41:54.645Z,96478.00
2022-10-06T00:42:04.538Z,96477.00
2022-10-06T00:42:14.467Z,96478.00
2022-10-06T00:42:24.593Z,96478.00
2022-10-06T00:42:34.517Z,96476.00
2022-10-06T00:42:44.512Z,96477.00
2022-10-06T00:42:54.726Z,96475.00
2022-10-06T00:43:04.644Z,96478.00
2022-10-06T00:43:14.697Z,96476.00
2022-10-06T00:43:24.541Z,96475.00
2022-10-06T00:43:34.547Z,96477.00
2022-10-06T00:43:44.620Z,96473.00
2022-10-06T00:43:54.545Z,96476.00
2022-10-06T00:44:04.712Z,96473.00
2022-10-06T00:44:14.436Z,96473.00
2022-10-06T00:44:24.512Z,96474.00
2022-10-06T00:44:34.471Z,96476.00
2022-10-06T00:44:44.608Z,96475.00
2022-10-06T00:44:54.482Z,96471.00
2022-10-06T00:45:04.646Z,96471.00
2022-10-06T00:45:14.614Z,96473.00
2022-10-06T00:45:24.467Z,96476.00
2022-10-06T00:45:34.517Z,96476.00
2022-10-06T00:45:44.529Z,96475.00
2022-10-06T00:45:54.487Z,96473.00
2022-10-06T00:46:04.479Z,96474.00
2022-10-06T00:46:14.608Z,96474.00
2022-10-06T00:46:24.800Z,96473.00
2022-10-06T00:46:34.478Z,96476.00
2022-10-06T00:46:44.582Z,96474.00
2022-10-06T00:46:54.570Z,96473.00
2022-10-06T00:47:04.494Z,96477.00
2022-10-06T00:47:14.440Z,96475.00
2022-10-06T00:47:24.666Z,96471.00
2022-10-06T00:47:34.661Z,96477.00
2022-10-06T00:47:44.435Z,96475.00
2022-10-06T00:47:54.594Z,96476.00
2022-10-06T00:48:04.566Z,96473.00
2022-10-06T00:48:14.727Z,96475.00
2022-10-06T00:48:24.772Z,96476.00
2022-10-06T00:48:34.480Z,96470.00
2022-10-06T00:48:44.572Z,96477.00
2022-10-06T00:48:54.540Z,96476.00
2022-10-06T00:49:04.567Z,96474.00
2022-10-06T00:49:14.699Z,96476.00
2022-10-06T00:49:24.463Z,96475.00
2022-10-06T00:49:34.698Z,96478.00
2022-10-06T00:49:44.598Z,96473.00
2022-10-06T00:49:54.601Z,96473.00
2022-10-06T00:50:04.698Z,96474.00
2022-10-06T00:50:14.668Z,96477.00
2022-10-06T00:50:24.482Z,96475.00
2022-10-06T00:50:34.487Z,96476.00
2022-10-06T00:50:44.717Z,96478.00
2022-10-06T00:50:54.541Z,96473.00
2022-10-06T00:51:04.632Z,96473.00
2022-10-06T00:51:14.543Z,96476.00
2022-10-06T00:51:24.453Z,96477.00
2022-10-06T00:51:34.577Z,96479.00
2022-10-06T00:51:44.572Z,96476.00
2022-10-06T00:51:54.620Z,96476.00
2022-10-06T00:52:04.499Z,96478.00
2022-10-06T00:52:14.547Z,96475.00
2022-10-06T00:52:24.555Z,96479.00
2022-10-06T00:52:34.437Z,96478.00
2022-10-06T00:52:44.601Z,96479.00
2022-10-06T00:52:54.489Z,96480.00
2022-10-06T00:53:04.588Z,96480.00
2022-10-06T00:53:14.739Z,96477.00
2022-10-06T00:53:24.554Z,96479.00
2022-10-06T00:53:34.426Z,96476.00
2022-10-06T00:53:44.618Z,96477.00
2022-10-06T00:53:54.570Z,96477.00
2022-10-06T00:54:04.441Z,96477.00
2022-10-06T00:54:14.582Z,96474.00
2022-10-06T00:54:24.649Z,96477.00
2022-10-06T00:54:34.560Z,96474.00
2022-10-06T00:54:44.570Z,96476.00
2022-10-06T00:54:54.472Z,96475.00
2022-10-06T00:55:04.465Z,96476.00
2022-10-06T00:55:14.438Z,96475.00
2022-10-06T00:55:24.630Z,96476.00
2022-10-06T00:55:34.481Z,96473.00
2022-10-06T00:55:44.669Z,96480.00
2022-10-06T00:55:54.681Z,96476.00
2022-10-06T00:56:04.615Z,96475.00
2022-10-06T00:56:14.553Z,96475.00
2022-10-06T00:56:24.678Z,96474.00
2022-10-06T00:56:34.517Z,96479.00
2022-10-06T00:56:44.636Z,96478.00
2022-10-06T00:56:54.593Z,96476.00
2022-10-06T00:57:04.521Z,96477.00
2022-10-06T00:57:14.607Z,96476.00
2022-10-06T00:57:24.583Z,96477.00
2022-10-06T00:57:34.571Z,96478.00
2022-10-06T00:57:44.537Z,96478.00
2022-10-06T00:57:54.614Z,96479.00
2022-10-06T00:58:04.548Z,96476.00
2022-10-06T00:58:14.497Z,96477.00
2022-10-06T00:58:25.102Z,96476.00
2022-10-06T00:58:34.463Z,96478.00
2022-10-06T00:58:44.511Z,96476.00
2022-10-06T00:58:54.583Z,96475.00
2022-10-06T00:59:04.696Z,96478.00
2022-10-06T00:59:14.620Z,96480.00
2022-10-06T00:59:24.417Z,96479.00
2022-10-06T00:59:34.563Z,96479.00
2022-10-06T00:59:44.447Z,96476.00
2022-10-06T00:59:54.636Z,96479.00
2022-10-06T01:00:04.596Z,96479.00
2022-10-06T01:00:14.444Z,96478.00
2022-10-06T01:00:24.580Z,96481.00
2022-10-06T01:00:34.680Z,96479.00
2022-10-06T01:00:44.629Z,96481.00
2022-10-06T01:00:54.433Z,96484.00
2022-10-06T01:01:04.596Z,96481.00
2022-10-06T01:01:14.910Z,96480.00
2022-10-06T01:01:24.628Z,96480.00
2022-10-06T01:01:34.723Z,96481.00
2022-10-06T01:01:44.620Z,96476.00
2022-10-06T01:01:54.497Z,96480.00
2022-10-06T01:02:04.632Z,96481.00
2022-10-06T01:02:14.731Z,96481.00
2022-10-06T01:02:24.644Z,96485.00
2022-10-06T01:02:34.680Z,96482.00
2022-10-06T01:02:44.659Z,96479.00
2022-10-06T01:02:54.681Z,96481.00
2022-10-06T01:03:04.524Z,96480.00
2022-10-06T01:03:14.473Z,96481.00
2022-10-06T01:03:24.676Z,96485.00
2022-10-06T01:03:34.565Z,96482.00
2022-10-06T01:03:44.475Z,96483.00
2022-10-06T01:03:54.553Z,96481.00
2022-10-06T01:04:04.513Z,96481.00
2022-10-06T01:04:14.595Z,96478.00
2022-10-06T01:04:24.632Z,96482.00
2022-10-06T01:04:34.685Z,96480.00
2022-10-06T01:04:44.415Z,96481.00
2022-10-06T01:04:54.465Z,96480.00
2022-10-06T01:05:04.503Z,96482.00
2022-10-06T01:05:14.548Z,96480.00
2022-10-06T01:05:24.519Z,96478.00
2022-10-06T01:05:34.463Z,96482.00
2022-10-06T01:05:44.622Z,96481.00
2022-10-06T01:05:54.604Z,96479.00
2022-10-06T01:06:04.434Z,96481.00
2022-10-06T01:06:14.457Z,96480.00
2022-10-06T01:06:24.601Z,96480.00
2022-10-06T01:06:34.425Z,96481.00
2022-10-06T01:06:44.675Z,96483.00
2022-10-06T01:06:54.677Z,96483.00
2022-10-06T01:07:04.529Z,96477.00
2022-10-06T01:07:14.661Z,96479.00
2022-10-06T01:07:24.598Z,96478.00
2022-10-06T01:07:34.539Z,96481.00
2022-10-06T01:07:44.628Z,96479.00
2022-10-06T01:07:54.439Z,96481.00
2022-10-06T01:08:04.488Z,96483.00
2022-10-06T01:08:14.640Z,96480.00
2022-10-06T01:08:24.470Z,96476.00
2022-10-06T01:08:34.553Z,96479.00
2022-10-06T01:08:44.599Z,96482.00
2022-10-06T01:08:54.698Z,96479.00
2022-10-06T01:09:04.507Z,96481.00
2022-10-06T01:09:14.432Z,96482.00
2022-10-06T01:09:24.619Z,96484.00
2022-10-06T01:09:34.674Z,96484.00
2022-10-06T01:09:44.540Z,96483.00
2022-10-06T01:09:54.687Z,96480.00
2022-10-06T01:10:04.511Z,96480.00
2022-10-06T01:10:14.565Z,96482.00
2022-10-06T01:10:24.588Z,96480.00
2022-10-06T01:10:34.524Z,96482.00
2022-10-06T01:10:44.641Z,96479.00
2022-10-06T01:10:54.644Z,96480.00
2022-10-06T01:11:04.548Z,96480.00
2022-10-06T01:11:14.510Z,96481.00
2022-10-06T01:11:24.501Z,96482.00
2022-10-06T01:11:34.648Z,96481.00
2022-10-06T01:11:44.465Z,96479.00
2022-10-06T01:11:54.730Z,96480.00
2022-10-06T01:12:04.547Z,96480.00
2022-10-06T01:12:14.457Z,96479.00
2022-10-06T01:12:24.514Z,96480.00
2022-10-06T01:12:34.461Z,96481.00
2022-10-06T01:12:44.567Z,96481.00
2022-10-06T01:12:54.650Z,96482.00
2022-10-06T01:13:04.669Z,96481.00
2022-10-06T01:13:14.527Z,96480.00
2022-10-06T01:13:24.568Z,96480.00
2022-10-06T01:13:34.554Z,96483.00
2022-10-06T01:13:44.665Z,96480.00
2022-10-06T01:13:54.488Z,96481.00
2022-10-06T01:14:04.561Z,96480.00
2022-10-06T01:14:14.534Z,96481.00
2022-10-06T01:14:24.697Z,96480.00
2022-10-06T01:14:34.518Z,96479.00
2022-10-06T01:14:44.416Z,96479.00
2022-10-06T01:14:54.721Z,96483.00
2022-10-06T01:15:04.633Z,96482.00
2022-10-06T01:15:14.517Z,96481.00
2022-10-06T01:15:24.473Z,96480.00
2022-10-06T01:15:34.727Z,96484.00
2022-10-06T01:15:44.580Z,96480.00
2022-10-06T01:15:54.495Z,96482.00
2022-10-06T01:16:04.581Z,96479.00
2022-10-06T01:16:14.793Z,96475.00
2022-10-06T01:16:24.570Z,96482.00
2022-10-06T01:16:34.595Z,96480.00
2022-10-06T01:16:44.627Z,96484.00
2022-10-06T01:16:54.664Z,96483.00
2022-10-06T01:17:04.568Z,96481.00
2022-10-06T01:17:14.651Z,96484.00
2022-10-06T01:17:24.684Z,96483.00
2022-10-06T01:17:34.411Z,96482.00
2022-10-06T01:17:44.588Z,96483.00
2022-10-06T01:17:54.569Z,96483.00
2022-10-06T01:18:04.443Z,96483.00
2022-10-06T01:18:14.698Z,96484.00
2022-10-06T01:18:24.468Z,96480.00
2022-10-06T01:18:34.613Z,96483.00
2022-10-06T01:18:44.609Z,96483.00
2022-10-06T01:18:54.543Z,96481.00
2022-10-06T01:19:04.571Z,96482.00
2022-10-06T01:19:14.509Z,96484.00
2022-10-06T01:19:24.583Z,96483.00
2022-10-06T01:19:34.714Z,96479.00
2022-10-06T01:19:44.634Z,96479.00
2022-10-06T01:19:54.464Z,96481.00
2022-10-06T01:20:04.605Z,96484.00
2022-10-06T01:20:14.624Z,96481.00
2022-10-06T01:20:24.623Z,96478.00
2022-10-06T01:20:34.744Z,96483.00
2022-10-06T01:20:44.501Z,96488.00
2022-10-06T01:20:54.450Z,96488.00
2022-10-06T01:21:04.684Z,96484.00
2022-10-06T01:21:14.592Z,96481.00
2022-10-06T01:21:24.460Z,96477.00
2022-10-06T01:21:34.448Z,96484.00
2022-10-06T01:21:44.460Z,96484.00
2022-10-06T01:21:54.664Z,96491.00
2022-10-06T01:22:04.590Z,96485.00
2022-10-06T01:22:14.547Z,96487.00
2022-10-06T01:22:24.541Z,96488.00
2022-10-06T01:22:34.604Z,96479.00
2022-10-06T01:22:44.592Z,96485.00
2022-10-06T01:22:54.531Z,96483.00
2022-10-06T01:23:04.649Z,96488.00
2022-10-06T01:23:14.437Z,96484.00
2022-10-06T01:23:24.523Z,96486.00
2022-10-06T01:23:34.644Z,96489.00
2022-10-06T01:23:44.580Z,96485.00
2022-10-06T01:23:54.521Z,96485.00
2022-10-06T01:24:04.471Z,96489.00
2022-10-06T01:24:14.588Z,96487.00
2022-10-06T01:24:24.602Z,96482.00
2022-10-06T01:24:34.581Z,96487.00
2022-10-06T01:24:44.598Z,96487.00
2022-10-06T01:24:54.546Z,96486.00
2022-10-06T01:25:04.672Z,96484.00
2022-10-06T01:25:14.458Z,96490.00
2022-10-06T01:25:24.609Z,96485.00
2022-10-06T01:25:34.412Z,96488.00
2022-10-06T01:25:44.502Z,96485.00
2022-10-06T01:25:54.495Z,96487.00
2022-10-06T01:26:04.416Z,96489.00
2022-10-06T01:26:14.703Z,96491.00
2022-10-06T01:26:24.546Z,96488.00
2022-10-06T01:26:34.523Z,96490.00
2022-10-06T01:26:44.778Z,96494.00
2022-10-06T01:26:54.601Z,96489.00
2022-10-06T01:27:04.592Z,96486.00
2022-10-06T01:27:14.698Z,96488.00
2022-10-06T01:27:24.676Z,96487.00
2022-10-06T01:27:34.635Z,96488.00
2022-10-06T01:27:44.536Z,96489.00
2022-10-06T01:27:54.747Z,96490.00
2022-10-06T01:28:04.796Z,96489.00
2022-10-06T01:28:14.513Z,96488.00
2022-10-06T01:28:24.779Z,96490.00
2022-10-06T01:28:34.554Z,96490.00
2022-10-06T01:28:44.634Z,96490.00
2022-10-06T01:28:54.620Z,96487.00
2022-10-06T01:29:04.670Z,96492.00
2022-10-06T01:29:14.466Z,96491.00
2022-10-06T01:29:24.534Z,96493.00
2022-10-06T01:29:34.658Z,96491.00
2022-10-06T01:29:44.445Z,96490.00
2022-10-06T01:29:54.518Z,96490.00
2022-10-06T01:30:04.761Z,96492.00
2022-10-06T01:30:14.466Z,96488.00
2022-10-06T01:30:24.615Z,96490.00
2022-10-06T01:30:34.498Z,96492.00
2022-10-06T01:30:44.540Z,96490.00
2022-10-06T01:30:54.671Z,96491.00
2022-10-06T01:31:04.822Z,96487.00
2022-10-06T01:31:14.573Z,96488.00
2022-10-06T01:31:24.680Z,96488.00
2022-10-06T01:31:34.708Z,96487.00
2022-10-06T01:31:44.439Z,96490.00
2022-10-06T01:31:54.576Z,96488.00
2022-10-06T01:32:04.614Z,96489.00
2022-10-06T01:32:14.574Z,96490.00
2022-10-06T01:32:24.706Z,96488.00
2022-10-06T01:32:34.438Z,96491.00
2022-10-06T01:32:44.624Z,96494.00
2022-10-06T01:32:54.553Z,96491.00
2022-10-06T01:33:04.675Z,96493.00
2022-10-06T01:33:14.684Z,96492.00
2022-10-06T01:33:24.577Z,96490.00
2022-10-06T01:33:34.706Z,96490.00
2022-10-06T01:33:44.452Z,96492.00
2022-10-06T01:33:54.430Z,96492.00
2022-10-06T01:34:04.405Z,96491.00
2022-10-06T01:34:14.469Z,96492.00
2022-10-06T01:34:24.666Z,96494.00
2022-10-06T01:34:34.455Z,96493.00
2022-10-06T01:34:44.654Z,96494.00
2022-10-06T01:34:54.531Z,96491.00
2022-10-06T01:35:04.967Z,96491.00
2022-10-06T01:35:14.420Z,96489.00
2022-10-06T01:35:24.683Z,96493.00
2022-10-06T01:35:34.513Z,96490.00
2022-10-06T01:35:44.669Z,96491.00
2022-10-06T01:35:54.671Z,96490.00
2022-10-06T01:36:04.555Z,96493.00
2022-10-06T01:36:14.531Z,96493.00
2022-10-06T01:36:24.440Z,96492.00
2022-10-06T01:36:34.694Z,96495.00
2022-10-06T01:36:44.661Z,96494.00
2022-10-06T01:36:54.490Z,96492.00
2022-10-06T01:37:04.435Z,96492.00
2022-10-06T01:37:14.571Z,96496.00
2022-10-06T01:37:24.657Z,96497.00
2022-10-06T01:37:34.450Z,96494.00
2022-10-06T01:37:44.653Z,96493.00
2022-10-06T01:37:54.622Z,96493.00
2022-10-06T01:38:04.649Z,96494.00
2022-10-06T01:38:14.685Z,96494.00
2022-10-06T01:38:24.520Z,96492.00
2022-10-06T01:38:34.414Z,96491.00
2022-10-06T01:38:46.513Z,96493.00
2022-10-06T01:38:54.601Z,96494.00
2022-10-06T01:39:04.619Z,96497.00
2022-10-06T01:39:14.548Z,96493.00
2022-10-06T01:39:24.506Z,96493.00
2022-10-06T01:39:34.685Z,96492.00
2022-10-06T01:39:44.669Z,96495.00
2022-10-06T01:39:54.553Z,96493.00
2022-10-06T01:40:04.627Z,96495.00
2022-10-06T01:40:14.628Z,96495.00
2022-10-06T01:40:24.451Z,96489.00
2022-10-06T01:40:34.613Z,96494.00
2022-10-06T01:40:44.429Z,96495.00
2022-10-06T01:40:54.409Z,96496.00
2022-10-06T01:41:04.730Z,96494.00
2022-10-06T01:41:14.606Z,96494.00
2022-10-06T01:41:24.645Z,96497.00
2022-10-06T01:41:34.563Z,96497.00
2022-10-06T01:41:44.694Z,96498.00
2022-10-06T01:41:54.464Z,96496.00
2022-10-06T01:42:04.642Z,96499.00
2022-10-06T01:42:14.434Z,96497.00
2022-10-06T01:42:24.542Z,96499.00
2022-10-06T01:42:34.528Z,96500.00
2022-10-06T01:42:44.429Z,96498.00
2022-10-06T01:42:54.675Z,96500.00
2022-10-06T01:43:04.640Z,96499.00
2022-10-06T01:43:14.507Z,96498.00
2022-10-06T01:43:24.556Z,96503.00
2022-10-06T01:43:34.502Z,96500.00
2022-10-06T01:43:44.538Z,96499.00
2022-10-06T01:43:54.419Z,96500.00
2022-10-06T01:44:04.579Z,96500.00
2022-10-06T01:44:14.730Z,96498.00
2022-10-06T01:44:24.415Z,96499.00
2022-10-06T01:44:34.468Z,96497.00
2022-10-06T01:44:44.617Z,96499.00
2022-10-06T01:44:54.713Z,96498.00
2022-10-06T01:45:04.449Z,96500.00
2022-10-06T01:45:14.632Z,96500.00
2022-10-06T01:45:24.524Z,96499.00
2022-10-06T01:45:34.421Z,96497.00
2022-10-06T01:45:44.463Z,96497.00
2022-10-06T01:45:54.598Z,96499.00
2022-10-06T01:46:04.694Z,96499.00
2022-10-06T01:46:14.603Z,96498.00
2022-10-06T01:46:24.499Z,96499.00
2022-10-06T01:46:34.834Z,96496.00
2022-10-06T01:46:44.548Z,96498.00
2022-10-06T01:46:54.449Z,96498.00
2022-10-06T01:47:04.647Z,96498.00
2022-10-06T01:47:14.742Z,96497.00
2022-10-06T01:47:24.686Z,96499.00
2022-10-06T01:47:34.603Z,96499.00
2022-10-06T01:47:44.446Z,96496.00
2022-10-06T01:47:54.614Z,96499.00
2022-10-06T01:48:04.525Z,96496.00
2022-10-06T01:48:14.431Z,96497.00
2022-10-06T01:48:24.624Z,96501.00
2022-10-06T01:48:34.468Z,96499.00
2022-10-06T01:48:44.709Z,96503.00
2022-10-06T01:48:54.656Z,96503.00
2022-10-06T01:49:04.512Z,96504.00
2022-10-06T01:49:14.610Z,96501.00
2022-10-06T01:49:24.662Z,96501.00
2022-10-06T01:49:34.696Z,96501.00
2022-10-06T01:49:44.491Z,96503.00
2022-10-06T01:49:54.554Z,96500.00
2022-10-06T01:50:04.569Z,96499.00
2022-10-06T01:50:14.502Z,96498.00
2022-10-06T01:50:24.697Z,96504.00
2022-10-06T01:50:34.491Z,96505.00
2022-10-06T01:50:44.521Z,96502.00
2022-10-06T01:50:54.694Z,96502.00
2022-10-06T01:51:04.542Z,96501.00
2022-10-06T01:51:14.537Z,96500.00
2022-10-06T01:51:24.575Z,96500.00
2022-10-06T01:51:34.659Z,96501.00
2022-10-06T01:51:44.695Z,96502.00
2022-10-06T01:51:54.457Z,96505.00
2022-10-06T01:52:04.439Z,96508.00
2022-10-06T01:52:14.673Z,96504.00
2022-10-06T01:52:24.682Z,96500.00
2022-10-06T01:52:34.483Z,96503.00
2022-10-06T01:52:44.672Z,96502.00
2022-10-06T01:52:54.720Z,96504.00
2022-10-06T01:53:04.429Z,96503.00
2022-10-06T01:53:14.486Z,96506.00
2022-10-06T01:53:24.448Z,96507.00
2022-10-06T01:53:34.417Z,96505.00
2022-10-06T01:53:44.457Z,96501.00
2022-10-06T01:53:54.452Z,96506.00
2022-10-06T01:54:04.528Z,96505.00
2022-10-06T01:54:14.609Z,96507.00
2022-10-06T01:54:24.582Z,96506.00
2022-10-06T01:54:34.550Z,96503.00
2022-10-06T01:54:44.627Z,96507.00
2022-10-06T01:54:54.686Z,96508.00
2022-10-06T01:55:04.522Z,96507.00
2022-10-06T01:55:14.602Z,96506.00
2022-10-06T01:55:24.550Z,96508.00
2022-10-06T01:55:34.608Z,96505.00
2022-10-06T01:55:44.445Z,96506.00
2022-10-06T01:55:54.638Z,96505.00
2022-10-06T01:56:04.529Z,96506.00
2022-10-06T01:56:14.431Z,96507.00
2022-10-06T01:56:24.539Z,96507.00
2022-10-06T01:56:34.688Z,96505.00
2022-10-06T01:56:44.441Z,96507.00
2022-10-06T01:56:54.409Z,96508.00
2022-10-06T01:57:04.594Z,96506.00
2022-10-06T01:57:14.579Z,96506.00
2022-10-06T01:57:24.651Z,96508.00